Hudson Bay, Canada
Current Conditions -  °F | °C
As of 4:00 PM on Friday 28 Nov 2014 (Local Time) from CYBU Reporting Station
Light Snow Light Snow  
Wind Chill: -25°   Ceiling: 1300
Heat Index: -4°   Visibility: 0.75mi
Dew Point: -8°   Wind: 16mph
Humidity: 85%   Direction: 20°NNE
Pressure: 29.8"   Gusts: 28mph
Location:  52.86°N, 102.39°W
Report Text: CYBU 282200Z AUTO 02014G24KT 3/4SM -SN VV013 M20/M22 A2980 RMK SLP132
Loading
Personal Weather Stations






























Interactive Weather Map New forecast layout! Learn more

10-Day Weather Forecast

Advertisements
Track Severe Weather on mobile